Demir Kapija, Macedonia
Current Conditions -  °F | °C
As of 5:30 AM on Monday 26 Jan 2015 (Local Time) from LWSK Reporting Station
Overcast Overcast  
Wind Chill: 29°   Ceiling: 5000
Heat Index: 36°   Visibility: 6mi
Dew Point: 30°   Wind: 8mph
Humidity: 81%   Direction: 30°NNE
Pressure: 30.12"   Gusts: NA
Location:  41.43°N, 22.26°E
Report Text: LWSK 260330Z 03007KT 9999 OVC050 02/M01 Q1020 NOSIG
Loading
Personal Weather Stations






























Interactive Weather Map New forecast layout! Learn more

10-Day Weather Forecast

Advertisements
Track Severe Weather on mobile